createdAt,value
2019-03-20T00:00:46.855Z,6.60
2019-03-20T00:03:15.519Z,6.50
2019-03-20T00:05:44.072Z,6.50
2019-03-20T00:08:12.648Z,6.50
2019-03-20T00:10:41.277Z,6.50
2019-03-20T00:13:14.870Z,6.40
2019-03-20T00:15:44.870Z,6.40
2019-03-20T00:18:13.539Z,6.30
2019-03-20T00:20:42.205Z,6.20
2019-03-20T00:23:10.768Z,6.20
2019-03-20T00:25:39.326Z,6.30
2019-03-20T00:28:08.218Z,6.40
2019-03-20T00:30:36.872Z,6.30
2019-03-20T00:33:05.838Z,6.20
2019-03-20T00:35:34.446Z,6.20
2019-03-20T00:38:03.064Z,6.30
2019-03-20T00:40:31.638Z,6.30
2019-03-20T00:43:00.252Z,6.20
2019-03-20T00:45:28.895Z,6.20
2019-03-20T00:47:57.594Z,6.20
2019-03-20T00:50:26.423Z,6.10
2019-03-20T00:52:55.083Z,6.00
2019-03-20T00:55:23.687Z,6.00
2019-03-20T00:57:52.275Z,6.00
2019-03-20T01:00:25.522Z,6.00
2019-03-20T01:02:54.579Z,6.00
2019-03-20T01:05:23.354Z,5.90
2019-03-20T01:07:52.278Z,5.90
2019-03-20T01:10:22.140Z,5.90
2019-03-20T01:12:51.628Z,6.00
2019-03-20T01:15:20.701Z,6.00
2019-03-20T01:17:49.506Z,5.90
2019-03-20T01:20:19.976Z,5.90
2019-03-20T01:22:48.810Z,5.80
2019-03-20T01:25:17.893Z,5.80
2019-03-20T01:27:46.903Z,5.80
2019-03-20T01:30:33.154Z,5.90
2019-03-20T01:33:04.073Z,5.90
2019-03-20T01:35:40.547Z,5.80
2019-03-20T01:38:10.560Z,5.70
2019-03-20T01:40:58.479Z,5.70
2019-03-20T01:43:27.306Z,5.70
2019-03-20T01:45:55.976Z,5.70
2019-03-20T01:48:24.560Z,5.80
2019-03-20T01:50:53.244Z,5.80
2019-03-20T01:53:21.866Z,5.80
2019-03-20T01:55:50.623Z,5.70
2019-03-20T01:58:19.234Z,5.80
2019-03-20T02:00:47.857Z,5.80
2019-03-20T02:03:16.540Z,5.70
2019-03-20T02:05:45.090Z,5.80
2019-03-20T02:08:13.771Z,5.70
2019-03-20T02:10:42.471Z,5.70
2019-03-20T02:13:11.117Z,5.60
2019-03-20T02:15:39.871Z,5.60
2019-03-20T02:18:08.619Z,5.60
2019-03-20T02:20:37.166Z,5.50
2019-03-20T02:23:05.975Z,5.60
2019-03-20T02:25:34.906Z,5.60
2019-03-20T02:28:03.678Z,5.60
2019-03-20T02:30:32.620Z,5.60
2019-03-20T02:33:01.175Z,5.50
2019-03-20T02:35:29.764Z,5.50
2019-03-20T02:37:58.375Z,5.50
2019-03-20T02:40:29.098Z,5.50
2019-03-20T02:42:57.563Z,5.50
2019-03-20T02:45:26.153Z,5.50
2019-03-20T02:48:14.052Z,5.50
2019-03-20T02:50:42.638Z,5.50
2019-03-20T02:53:23.579Z,5.50
2019-03-20T02:55:59.305Z,5.60
2019-03-20T02:58:27.893Z,5.50
2019-03-20T03:00:56.462Z,5.40
2019-03-20T03:03:25.126Z,5.40
2019-03-20T03:06:06.008Z,5.40
2019-03-20T03:08:24.039Z,5.30
2019-03-20T03:10:55.569Z,5.50
2019-03-20T03:13:23.176Z,5.40
2019-03-20T03:15:52.129Z,5.40
2019-03-20T03:18:20.852Z,5.50
2019-03-20T03:20:49.460Z,5.60
2019-03-20T03:23:18.217Z,5.50
2019-03-20T03:25:49.874Z,5.50
2019-03-20T03:28:17.104Z,5.40
2019-03-20T03:30:45.713Z,5.40
2019-03-20T03:33:14.321Z,5.30
2019-03-20T03:35:42.892Z,5.30
2019-03-20T03:38:11.503Z,5.30
2019-03-20T03:40:40.718Z,5.30
2019-03-20T03:43:09.607Z,5.20
2019-03-20T03:45:38.176Z,5.20
2019-03-20T03:48:26.091Z,5.20
2019-03-20T03:50:54.822Z,5.20
2019-03-20T03:53:23.677Z,5.10
2019-03-20T03:55:52.310Z,5.10
2019-03-20T03:58:20.994Z,5.20
2019-03-20T04:00:49.578Z,5.20
2019-03-20T04:03:18.406Z,5.30
2019-03-20T04:05:47.099Z,5.20
2019-03-20T04:08:16.229Z,5.20
2019-03-20T04:10:44.837Z,5.30
2019-03-20T04:13:13.416Z,5.30
2019-03-20T04:15:42.080Z,5.10
2019-03-20T04:18:10.768Z,5.20
2019-03-20T04:20:39.553Z,5.10
2019-03-20T04:23:08.165Z,5.10
2019-03-20T04:25:36.822Z,5.00
2019-03-20T04:28:05.545Z,5.00
2019-03-20T04:30:53.478Z,5.00
2019-03-20T04:33:22.128Z,5.00
2019-03-20T04:35:51.057Z,4.90
2019-03-20T04:38:19.711Z,5.00
2019-03-20T04:40:48.322Z,5.00
2019-03-20T04:43:16.983Z,5.00
2019-03-20T04:45:45.594Z,4.90
2019-03-20T04:48:14.144Z,5.00
2019-03-20T04:50:42.836Z,5.00
2019-03-20T04:53:11.375Z,4.90
2019-03-20T04:55:39.991Z,4.90
2019-03-20T04:58:08.578Z,4.80
2019-03-20T05:00:37.255Z,4.70
2019-03-20T05:03:05.811Z,4.70
2019-03-20T05:05:34.479Z,4.80
2019-03-20T05:08:03.166Z,4.80
2019-03-20T05:10:31.776Z,4.80
2019-03-20T05:13:00.408Z,4.90
2019-03-20T05:15:29.097Z,4.90
2019-03-20T05:17:57.682Z,4.90
2019-03-20T05:20:26.323Z,4.80
2019-03-20T05:22:55.024Z,4.70
2019-03-20T05:25:23.594Z,4.70
2019-03-20T05:27:52.419Z,4.70
2019-03-20T05:30:21.055Z,4.70
2019-03-20T05:32:49.712Z,4.80
2019-03-20T05:35:18.362Z,4.80
2019-03-20T05:38:06.367Z,4.70
2019-03-20T05:40:35.080Z,4.80
2019-03-20T05:43:04.877Z,4.80
2019-03-20T05:45:33.563Z,4.80
2019-03-20T05:48:02.248Z,4.80
2019-03-20T05:50:30.920Z,4.80
2019-03-20T05:52:59.563Z,4.90
2019-03-20T05:55:28.500Z,4.90
2019-03-20T05:57:57.107Z,4.80
2019-03-20T06:00:27.406Z,4.80
2019-03-20T06:02:56.123Z,4.80
2019-03-20T06:05:24.681Z,4.80
2019-03-20T06:07:53.296Z,4.70
2019-03-20T06:10:21.844Z,4.70
2019-03-20T06:12:50.543Z,4.80
2019-03-20T06:15:19.203Z,4.90
2019-03-20T06:17:48.015Z,4.80
2019-03-20T06:20:16.739Z,4.80
2019-03-20T06:22:45.617Z,4.70
2019-03-20T06:25:16.189Z,4.80
2019-03-20T06:27:45.009Z,4.90
2019-03-20T06:30:18.386Z,4.90
2019-03-20T06:32:47.158Z,5.00
2019-03-20T06:35:17.291Z,5.00
2019-03-20T06:37:46.211Z,5.00
2019-03-20T06:40:17.224Z,5.10
2019-03-20T06:42:45.992Z,5.20
2019-03-20T06:45:19.306Z,5.10
2019-03-20T06:47:48.375Z,5.10
2019-03-20T06:50:24.275Z,5.10
2019-03-20T06:52:52.913Z,5.30
2019-03-20T06:55:21.618Z,5.20
2019-03-20T06:57:50.276Z,5.30
2019-03-20T07:00:40.032Z,5.40
2019-03-20T07:03:29.592Z,5.50
2019-03-20T07:06:13.589Z,5.40
2019-03-20T07:09:11.111Z,5.30
2019-03-20T07:11:39.883Z,5.40
2019-03-20T07:14:08.679Z,5.50
2019-03-20T07:16:37.336Z,5.60
2019-03-20T07:19:06.226Z,5.80
2019-03-20T07:21:34.948Z,5.90
2019-03-20T07:24:03.702Z,6.20
2019-03-20T07:26:32.335Z,6.30
2019-03-20T07:29:01.235Z,6.40
2019-03-20T07:31:30.112Z,6.40
2019-03-20T07:33:59.159Z,6.60
2019-03-20T07:36:27.911Z,6.60
2019-03-20T07:38:56.753Z,6.80
2019-03-20T07:41:25.492Z,7.00
2019-03-20T07:43:54.342Z,7.10
2019-03-20T07:46:23.281Z,7.40
2019-03-20T07:48:51.943Z,7.60
2019-03-20T07:51:21.752Z,7.90
2019-03-20T07:53:50.559Z,8.10
2019-03-20T07:56:21.275Z,8.30
2019-03-20T07:59:09.072Z,8.50
2019-03-20T08:01:37.726Z,8.70
2019-03-20T08:04:06.517Z,8.80
2019-03-20T08:06:35.224Z,8.90
2019-03-20T08:09:06.167Z,9.10
2019-03-20T08:11:34.927Z,9.20
2019-03-20T08:14:03.811Z,9.20
2019-03-20T08:16:32.509Z,9.20
2019-03-20T08:19:02.757Z,9.30
2019-03-20T08:21:31.501Z,9.40
2019-03-20T08:24:00.494Z,9.50
2019-03-20T08:26:29.216Z,9.60
2019-03-20T08:28:57.914Z,9.70
2019-03-20T08:31:26.617Z,9.80
2019-03-20T08:33:56.795Z,9.80
2019-03-20T08:36:26.539Z,9.90
2019-03-20T08:38:55.729Z,9.90
2019-03-20T08:41:43.886Z,9.90
2019-03-20T08:44:13.927Z,10.00
2019-03-20T08:46:42.815Z,10.00
2019-03-20T08:49:11.671Z,10.00
2019-03-20T08:51:41.001Z,10.10
2019-03-20T08:54:09.604Z,10.10
2019-03-20T08:56:40.939Z,10.20
2019-03-20T08:59:11.225Z,10.30
2019-03-20T09:01:39.718Z,10.30
2019-03-20T09:04:08.508Z,10.40
2019-03-20T09:06:39.160Z,10.40
2019-03-20T09:09:08.338Z,10.50
2019-03-20T09:11:37.046Z,10.50
2019-03-20T09:14:07.438Z,10.60
2019-03-20T09:16:36.092Z,10.60
2019-03-20T09:19:05.727Z,10.60
2019-03-20T09:21:34.243Z,10.70
2019-03-20T09:24:03.207Z,10.80
2019-03-20T09:26:31.926Z,10.80
2019-03-20T09:29:02.595Z,10.80
2019-03-20T09:31:40.305Z,10.70
2019-03-20T09:34:32.456Z,10.80
2019-03-20T09:36:59.367Z,10.80
2019-03-20T09:39:31.832Z,10.80
2019-03-20T09:42:02.272Z,10.90
2019-03-20T09:44:31.604Z,10.90
2019-03-20T09:47:07.038Z,10.90
2019-03-20T09:49:35.767Z,11.00
2019-03-20T09:52:04.787Z,11.00
2019-03-20T09:54:33.695Z,11.00
2019-03-20T09:57:04.253Z,11.00
2019-03-20T09:59:34.540Z,11.00
2019-03-20T10:02:03.333Z,11.00
2019-03-20T10:04:32.029Z,11.00
2019-03-20T10:07:00.752Z,11.00
2019-03-20T10:09:29.544Z,10.90
2019-03-20T10:11:59.450Z,11.00
2019-03-20T10:14:28.181Z,11.10
2019-03-20T10:16:57.123Z,11.10
2019-03-20T10:19:25.767Z,11.00
2019-03-20T10:21:56.112Z,11.00
2019-03-20T10:24:25.970Z,11.10
2019-03-20T10:26:54.686Z,11.10
2019-03-20T10:29:23.471Z,11.10
2019-03-20T10:31:53.234Z,11.10
2019-03-20T10:34:22.133Z,11.20
2019-03-20T10:36:52.277Z,11.20
2019-03-20T10:39:21.993Z,11.10
2019-03-20T10:41:59.712Z,11.20
2019-03-20T10:44:30.252Z,11.20
2019-03-20T10:46:59.182Z,11.20
2019-03-20T10:49:27.861Z,11.20
2019-03-20T10:51:56.859Z,11.20
2019-03-20T10:54:26.342Z,11.30
2019-03-20T10:56:57.003Z,11.40
2019-03-20T10:59:25.660Z,11.50
2019-03-20T11:01:54.739Z,11.50
2019-03-20T11:04:23.671Z,11.50
2019-03-20T11:06:53.492Z,11.50
2019-03-20T11:09:25.047Z,11.50
2019-03-20T11:11:53.723Z,11.50
2019-03-20T11:14:22.694Z,11.50
2019-03-20T11:17:10.767Z,11.50
2019-03-20T11:19:41.598Z,11.60
2019-03-20T11:22:19.045Z,11.60
2019-03-20T11:25:08.938Z,11.50
2019-03-20T11:27:37.696Z,11.40
2019-03-20T11:30:09.588Z,11.40
2019-03-20T11:32:40.085Z,11.50
2019-03-20T11:35:10.027Z,11.60
2019-03-20T11:37:38.957Z,11.70
2019-03-20T11:40:31.887Z,11.70
2019-03-20T11:45:42.664Z,11.70
2019-03-20T11:48:11.360Z,11.80
2019-03-20T11:50:44.006Z,11.80
2019-03-20T11:53:12.650Z,11.80
2019-03-20T11:56:00.660Z,11.80
2019-03-20T11:58:29.283Z,11.90
2019-03-20T12:00:58.252Z,12.00
2019-03-20T12:03:27.541Z,11.90
2019-03-20T12:05:57.458Z,11.90
2019-03-20T12:08:26.250Z,12.00
2019-03-20T12:10:54.964Z,12.00
2019-03-20T12:13:23.808Z,12.00
2019-03-20T12:15:52.915Z,12.10
2019-03-20T12:18:21.566Z,12.00
2019-03-20T12:20:51.924Z,12.10
2019-03-20T12:23:23.684Z,12.10
2019-03-20T12:25:52.449Z,12.10
2019-03-20T12:28:21.260Z,12.10
2019-03-20T12:30:49.885Z,12.10
2019-03-20T12:33:18.559Z,12.20
2019-03-20T12:35:52.652Z,12.20
2019-03-20T12:38:21.260Z,12.20
2019-03-20T12:40:50.051Z,12.30
2019-03-20T12:43:20.237Z,12.20
2019-03-20T12:45:49.025Z,12.40
2019-03-20T12:48:21.888Z,12.30
2019-03-20T12:50:50.732Z,12.30
2019-03-20T12:53:25.108Z,12.30
2019-03-20T12:55:53.871Z,12.30
2019-03-20T12:58:22.652Z,12.40
2019-03-20T13:00:54.212Z,12.40
2019-03-20T13:03:21.841Z,12.40
2019-03-20T13:05:50.990Z,12.40
2019-03-20T13:08:20.375Z,12.40
2019-03-20T13:10:49.191Z,12.50
2019-03-20T13:13:18.000Z,12.50
2019-03-20T13:15:47.248Z,12.60
2019-03-20T13:18:16.154Z,12.60
2019-03-20T13:20:44.951Z,12.60
2019-03-20T13:23:25.976Z,12.60
2019-03-20T13:25:54.767Z,12.60
2019-03-20T13:28:23.805Z,12.60
2019-03-20T13:31:04.563Z,12.60
2019-03-20T13:33:33.293Z,12.70
2019-03-20T13:36:02.014Z,12.70
2019-03-20T13:38:31.220Z,12.70
2019-03-20T13:41:00.096Z,12.70
2019-03-20T13:43:28.756Z,12.80
2019-03-20T13:45:59.003Z,12.80
2019-03-20T13:48:28.075Z,12.70
2019-03-20T13:50:56.852Z,12.70
2019-03-20T13:53:25.513Z,12.80
2019-03-20T13:55:55.698Z,12.80
2019-03-20T13:58:24.419Z,12.80
2019-03-20T14:00:54.310Z,12.80
2019-03-20T14:03:23.185Z,12.80
2019-03-20T14:06:11.258Z,12.80
2019-03-20T14:08:41.141Z,12.80
2019-03-20T14:11:10.136Z,12.90
2019-03-20T14:13:52.156Z,13.00
2019-03-20T14:16:09.101Z,12.90
2019-03-20T14:18:37.954Z,12.90
2019-03-20T14:21:07.033Z,12.90
2019-03-20T14:23:35.741Z,12.80
2019-03-20T14:26:04.558Z,12.80
2019-03-20T14:28:33.383Z,12.90
2019-03-20T14:31:02.120Z,12.90
2019-03-20T14:33:30.753Z,12.90
2019-03-20T14:35:59.774Z,13.00
2019-03-20T14:38:29.995Z,13.10
2019-03-20T14:40:58.998Z,13.40
2019-03-20T14:43:27.669Z,13.80
2019-03-20T14:45:56.467Z,14.00
2019-03-20T14:48:25.341Z,13.90
2019-03-20T14:50:55.064Z,13.80
2019-03-20T14:53:23.966Z,13.70
2019-03-20T14:55:52.935Z,13.70
2019-03-20T14:58:21.800Z,13.60
2019-03-20T15:00:51.814Z,13.60
2019-03-20T15:03:20.794Z,13.60
2019-03-20T15:05:49.462Z,13.60
2019-03-20T15:08:18.220Z,13.50
2019-03-20T15:10:49.018Z,13.50
2019-03-20T15:13:18.968Z,13.40
2019-03-20T15:16:11.538Z,13.40
2019-03-20T15:18:40.539Z,13.30
2019-03-20T15:21:09.194Z,13.20
2019-03-20T15:23:37.847Z,13.20
2019-03-20T15:26:26.020Z,13.20
2019-03-20T15:28:54.979Z,13.30
2019-03-20T15:31:23.777Z,13.20
2019-03-20T15:33:52.464Z,13.20
2019-03-20T15:36:40.467Z,13.20
2019-03-20T15:39:10.902Z,13.30
2019-03-20T15:41:40.492Z,13.20
2019-03-20T15:44:09.126Z,13.20
2019-03-20T15:46:37.837Z,13.20
2019-03-20T15:49:06.600Z,13.20
2019-03-20T15:51:35.348Z,13.20
2019-03-20T15:54:04.304Z,13.20
2019-03-20T15:56:33.044Z,13.10
2019-03-20T15:59:01.748Z,13.00
2019-03-20T16:01:30.390Z,13.00
2019-03-20T16:03:59.052Z,13.00
2019-03-20T16:06:27.809Z,13.00
2019-03-20T16:08:56.972Z,13.00
2019-03-20T16:11:26.005Z,13.00
2019-03-20T16:13:55.028Z,13.00
2019-03-20T16:16:23.820Z,12.90
2019-03-20T16:18:52.503Z,13.00
2019-03-20T16:21:21.642Z,13.00
2019-03-20T16:23:50.363Z,13.00
2019-03-20T16:26:19.649Z,13.00
2019-03-20T16:28:48.325Z,13.00
2019-03-20T16:31:17.056Z,13.00
2019-03-20T16:33:45.721Z,13.00
2019-03-20T16:36:14.362Z,13.00
2019-03-20T16:38:43.297Z,12.90
2019-03-20T16:41:17.003Z,12.90
2019-03-20T16:43:46.705Z,13.00
2019-03-20T16:46:15.624Z,12.90
2019-03-20T16:48:44.789Z,12.90
2019-03-20T16:51:13.671Z,12.80
2019-03-20T16:54:01.660Z,12.80
2019-03-20T16:56:30.535Z,12.80
2019-03-20T16:58:59.340Z,12.80
2019-03-20T17:01:28.100Z,12.80
2019-03-20T17:03:56.872Z,12.80
2019-03-20T17:06:25.689Z,12.80
2019-03-20T17:08:57.482Z,12.80
2019-03-20T17:11:34.423Z,12.80
2019-03-20T17:13:56.663Z,12.80
2019-03-20T17:16:25.486Z,12.70
2019-03-20T17:18:54.204Z,12.70
2019-03-20T17:21:22.927Z,12.70
2019-03-20T17:23:53.434Z,12.70
2019-03-20T17:26:23.749Z,12.60
2019-03-20T17:28:52.776Z,12.60
2019-03-20T17:31:23.465Z,12.60
2019-03-20T17:33:52.420Z,12.50
2019-03-20T17:36:21.151Z,12.50
2019-03-20T17:38:50.111Z,12.50
2019-03-20T17:41:18.783Z,12.50
2019-03-20T17:43:47.481Z,12.40
2019-03-20T17:46:17.453Z,12.40
2019-03-20T17:48:46.435Z,12.40
2019-03-20T17:51:15.216Z,12.40
2019-03-20T17:54:03.212Z,12.40
2019-03-20T17:56:31.943Z,12.30
2019-03-20T17:59:00.841Z,12.30
2019-03-20T18:01:29.640Z,12.20
2019-03-20T18:03:58.343Z,12.20
2019-03-20T18:06:27.102Z,12.10
2019-03-20T18:09:08.351Z,12.10
2019-03-20T18:11:46.839Z,12.10
2019-03-20T18:14:08.276Z,12.00
2019-03-20T18:16:37.002Z,11.90
2019-03-20T18:19:05.689Z,11.90
2019-03-20T18:21:34.508Z,11.80
2019-03-20T18:24:03.298Z,11.70
2019-03-20T18:26:31.930Z,11.70
2019-03-20T18:29:00.874Z,11.70
2019-03-20T18:31:29.490Z,11.70
2019-03-20T18:34:17.600Z,11.60
2019-03-20T18:36:46.263Z,11.50
2019-03-20T18:39:15.282Z,11.40
2019-03-20T18:41:43.966Z,11.30
2019-03-20T18:44:14.566Z,11.20
2019-03-20T18:46:43.177Z,11.10
2019-03-20T18:49:13.604Z,11.10
2019-03-20T18:51:43.909Z,11.10
2019-03-20T18:54:12.479Z,11.10
2019-03-20T18:56:41.128Z,11.10
2019-03-20T18:59:09.953Z,11.00
2019-03-20T19:01:38.654Z,11.10
2019-03-20T19:04:07.209Z,11.00
2019-03-20T19:06:36.225Z,11.00
2019-03-20T19:09:07.892Z,11.00
2019-03-20T19:11:36.632Z,11.00
2019-03-20T19:14:05.538Z,10.90
2019-03-20T19:16:34.461Z,10.90
2019-03-20T19:19:04.605Z,10.80
2019-03-20T19:21:33.386Z,10.80
2019-03-20T19:24:03.066Z,10.80
2019-03-20T19:26:31.680Z,10.70
2019-03-20T19:29:00.298Z,10.70
2019-03-20T19:31:28.911Z,10.60
2019-03-20T19:33:57.613Z,10.50
2019-03-20T19:36:26.283Z,10.50
2019-03-20T19:38:54.979Z,10.40
2019-03-20T19:41:23.701Z,10.30
2019-03-20T19:43:52.337Z,10.20
2019-03-20T19:46:21.178Z,10.20
2019-03-20T19:48:49.837Z,10.10
2019-03-20T19:51:20.302Z,10.00
2019-03-20T19:53:49.006Z,10.00
2019-03-20T19:56:17.721Z,9.80
2019-03-20T19:58:46.391Z,9.70
2019-03-20T20:01:15.032Z,9.70
2019-03-20T20:03:43.968Z,9.80
2019-03-20T20:06:12.980Z,9.70
2019-03-20T20:08:41.808Z,9.70
2019-03-20T20:11:10.428Z,9.60
2019-03-20T20:13:39.119Z,9.60
2019-03-20T20:16:07.666Z,9.50
2019-03-20T20:18:36.322Z,9.40
2019-03-20T20:21:05.074Z,9.30
2019-03-20T20:23:33.698Z,9.40
2019-03-20T20:26:02.312Z,9.30
2019-03-20T20:28:32.436Z,9.40
2019-03-20T20:31:01.050Z,9.40
2019-03-20T20:33:29.600Z,9.30
2019-03-20T20:35:58.360Z,9.20
2019-03-20T20:38:27.203Z,9.20
2019-03-20T20:40:55.871Z,9.20
2019-03-20T20:43:24.582Z,9.30
2019-03-20T20:45:53.171Z,9.20
2019-03-20T20:48:21.825Z,9.00
2019-03-20T20:50:50.461Z,8.80
2019-03-20T20:53:19.133Z,8.80
2019-03-20T20:55:47.855Z,8.90
2019-03-20T20:58:16.531Z,8.80
2019-03-20T21:00:45.189Z,8.80
2019-03-20T21:03:13.926Z,8.90
2019-03-20T21:05:42.528Z,8.80
2019-03-20T21:08:11.367Z,8.70
2019-03-20T21:10:42.053Z,8.70
2019-03-20T21:13:10.488Z,8.70
2019-03-20T21:15:46.594Z,8.70
2019-03-20T21:18:34.944Z,8.70
2019-03-20T21:21:03.688Z,8.60
2019-03-20T21:23:41.205Z,8.50
2019-03-20T21:26:24.896Z,8.40
2019-03-20T21:29:29.725Z,8.50
2019-03-20T21:32:04.072Z,8.40
2019-03-20T21:34:53.604Z,8.30
2019-03-20T21:37:50.954Z,8.30
2019-03-20T21:40:19.585Z,8.10
2019-03-20T21:43:24.344Z,7.90
2019-03-20T21:46:13.508Z,8.00
2019-03-20T21:48:42.300Z,7.90
2019-03-20T21:51:15.580Z,8.00
2019-03-20T21:54:12.880Z,8.00
2019-03-20T21:57:11.638Z,8.00
2019-03-20T22:00:09.131Z,7.80
2019-03-20T22:02:45.575Z,7.80
2019-03-20T22:05:26.654Z,7.60
2019-03-20T22:07:55.233Z,7.60
2019-03-20T22:10:29.814Z,7.80
2019-03-20T22:13:18.073Z,7.80
2019-03-20T22:16:14.845Z,7.70
2019-03-20T22:18:55.265Z,7.70
2019-03-20T22:21:27.000Z,7.70
2019-03-20T22:24:07.550Z,7.60
2019-03-20T22:27:03.488Z,7.70
2019-03-20T22:29:32.034Z,7.60
2019-03-20T22:32:24.724Z,7.60
2019-03-20T22:35:13.207Z,7.50
2019-03-20T22:37:41.884Z,7.50
2019-03-20T22:40:16.110Z,7.50
2019-03-20T22:43:13.631Z,7.60
2019-03-20T22:46:00.329Z,7.60
2019-03-20T22:48:37.847Z,7.50
2019-03-20T22:51:27.343Z,7.50
2019-03-20T22:54:26.067Z,7.50
2019-03-20T22:57:00.716Z,7.40
2019-03-20T22:59:29.517Z,7.40
2019-03-20T23:02:05.076Z,7.30
2019-03-20T23:04:36.926Z,7.20
2019-03-20T23:07:05.715Z,7.30
2019-03-20T23:09:34.493Z,7.40
2019-03-20T23:12:05.956Z,7.30
2019-03-20T23:14:34.807Z,7.40
2019-03-20T23:17:03.420Z,7.30
2019-03-20T23:19:32.238Z,7.20
2019-03-20T23:22:00.907Z,7.10
2019-03-20T23:24:29.552Z,7.10
2019-03-20T23:26:59.630Z,7.10
2019-03-20T23:29:28.227Z,7.00
2019-03-20T23:31:56.897Z,7.00
2019-03-20T23:34:25.539Z,7.10
2019-03-20T23:36:54.111Z,7.20
2019-03-20T23:39:22.755Z,7.00
2019-03-20T23:41:51.342Z,6.90
2019-03-20T23:44:19.968Z,7.00
2019-03-20T23:46:48.654Z,7.10
2019-03-20T23:49:20.848Z,7.00
2019-03-20T23:51:49.453Z,7.10
2019-03-20T23:54:21.373Z,7.00
2019-03-20T23:56:49.952Z,7.00
2019-03-20T23:59:18.544Z,6.90
